createdAt,value
2024-03-13T00:01:04.911Z,7.50
2024-03-13T00:03:33.496Z,7.39
2024-03-13T00:06:01.283Z,7.40
2024-03-13T00:08:28.195Z,7.46
2024-03-13T00:10:54.807Z,7.61
2024-03-13T00:13:23.607Z,7.55
2024-03-13T00:15:50.899Z,7.62
2024-03-13T00:18:17.788Z,7.71
2024-03-13T00:20:44.449Z,7.82
2024-03-13T00:23:11.147Z,7.75
2024-03-13T00:25:37.784Z,7.84
2024-03-13T00:28:04.764Z,7.82
2024-03-13T00:30:31.522Z,7.92
2024-03-13T00:32:58.313Z,7.99
2024-03-13T00:35:25.381Z,8.14
2024-03-13T00:37:52.206Z,8.21
2024-03-13T00:40:19.443Z,8.15
2024-03-13T00:42:46.219Z,8.11
2024-03-13T00:45:13.092Z,8.21
2024-03-13T00:47:40.206Z,8.24
2024-03-13T00:50:09.257Z,8.13
2024-03-13T00:52:37.812Z,8.14
2024-03-13T00:55:05.022Z,8.16
2024-03-13T00:57:31.737Z,8.14
2024-03-13T00:59:59.833Z,8.14
2024-03-13T01:02:26.616Z,8.21
2024-03-13T01:04:55.925Z,8.23
2024-03-13T01:07:23.664Z,8.09
2024-03-13T01:09:51.273Z,8.11
2024-03-13T01:12:20.638Z,8.18
2024-03-13T01:14:47.525Z,8.16
2024-03-13T01:17:14.176Z,8.18
2024-03-13T01:19:40.822Z,8.15
2024-03-13T01:22:11.696Z,8.11
2024-03-13T01:24:39.751Z,8.07
2024-03-13T01:27:06.676Z,8.12
2024-03-13T01:29:33.381Z,8.06
2024-03-13T01:32:00.090Z,8.12
2024-03-13T01:34:27.842Z,8.13
2024-03-13T01:37:13.535Z,8.06
2024-03-13T01:39:40.257Z,8.13
2024-03-13T01:42:25.413Z,8.14
2024-03-13T01:45:30.594Z,8.10
2024-03-13T01:48:18.290Z,8.09
2024-03-13T01:51:05.626Z,8.10
2024-03-13T01:53:53.986Z,8.14
2024-03-13T01:56:27.637Z,8.16
2024-03-13T01:59:09.006Z,8.14
2024-03-13T02:01:54.327Z,8.11
2024-03-13T02:04:22.048Z,8.27
2024-03-13T02:06:48.855Z,8.29
2024-03-13T02:09:16.216Z,8.29
2024-03-13T02:11:43.357Z,8.16
2024-03-13T02:14:10.108Z,8.27
2024-03-13T02:16:36.880Z,8.27
2024-03-13T02:19:04.039Z,8.26
2024-03-13T02:21:31.892Z,8.06
2024-03-13T02:23:58.528Z,8.22
2024-03-13T02:26:26.311Z,8.33
2024-03-13T02:28:53.563Z,8.25
2024-03-13T02:31:20.982Z,8.31
2024-03-13T02:33:47.999Z,8.25
2024-03-13T02:36:15.246Z,8.34
2024-03-13T02:38:42.050Z,8.34
2024-03-13T02:41:08.704Z,8.21
2024-03-13T02:43:38.050Z,8.26
2024-03-13T02:46:04.977Z,8.34
2024-03-13T02:48:31.823Z,8.34
2024-03-13T02:50:58.609Z,8.16
2024-03-13T02:53:25.335Z,8.26
2024-03-13T02:55:55.112Z,8.39
2024-03-13T02:58:23.139Z,8.44
2024-03-13T03:00:50.351Z,7.91
2024-03-13T03:03:17.883Z,8.16
2024-03-13T03:05:46.915Z,8.33
2024-03-13T03:08:13.683Z,8.37
2024-03-13T03:10:40.392Z,8.46
2024-03-13T03:13:09.952Z,8.53
2024-03-13T03:15:37.539Z,8.55
2024-03-13T03:18:05.281Z,8.59
2024-03-13T03:20:32.540Z,8.50
2024-03-13T03:22:59.850Z,8.35
2024-03-13T03:25:29.594Z,8.13
2024-03-13T03:27:58.349Z,8.30
2024-03-13T03:30:27.072Z,8.08
2024-03-13T03:32:56.809Z,8.24
2024-03-13T03:35:24.789Z,8.16
2024-03-13T03:37:52.262Z,8.34
2024-03-13T03:40:19.311Z,8.36
2024-03-13T03:42:47.938Z,8.36
2024-03-13T03:45:14.713Z,8.20
2024-03-13T03:47:41.422Z,8.33
2024-03-13T03:50:08.467Z,8.43
2024-03-13T03:52:35.873Z,8.40
2024-03-13T03:55:04.214Z,8.31
2024-03-13T03:57:31.022Z,8.28
2024-03-13T03:59:57.718Z,8.35
2024-03-13T04:02:24.509Z,8.35
2024-03-13T04:04:51.109Z,8.27
2024-03-13T04:07:17.740Z,8.30
2024-03-13T04:09:44.407Z,8.22
2024-03-13T04:12:11.131Z,8.09
2024-03-13T04:14:38.502Z,8.12
2024-03-13T04:17:05.215Z,8.16
2024-03-13T04:19:31.919Z,7.93
2024-03-13T04:22:00.121Z,7.95
2024-03-13T04:24:26.903Z,8.07
2024-03-13T04:26:53.633Z,8.27
2024-03-13T04:29:23.109Z,8.26
2024-03-13T04:31:53.168Z,8.43
2024-03-13T04:34:20.076Z,8.31
2024-03-13T04:36:48.478Z,8.49
2024-03-13T04:39:17.037Z,8.50
2024-03-13T04:41:43.823Z,8.61
2024-03-13T04:44:11.063Z,8.42
2024-03-13T04:46:39.494Z,8.57
2024-03-13T04:49:06.366Z,8.19
2024-03-13T04:51:32.917Z,8.32
2024-03-13T04:53:59.585Z,8.31
2024-03-13T04:56:26.230Z,8.39
2024-03-13T04:58:53.522Z,8.37
2024-03-13T05:01:20.502Z,8.48
2024-03-13T05:03:48.088Z,8.43
2024-03-13T05:06:15.115Z,8.22
2024-03-13T05:08:42.092Z,8.39
2024-03-13T05:11:12.089Z,8.36
2024-03-13T05:13:39.840Z,8.43
2024-03-13T05:16:07.568Z,8.31
2024-03-13T05:18:35.970Z,8.41
2024-03-13T05:21:02.831Z,8.57
2024-03-13T05:23:29.445Z,8.38
2024-03-13T05:25:56.965Z,8.33
2024-03-13T05:28:24.065Z,8.51
2024-03-13T05:30:51.061Z,8.65
2024-03-13T05:33:17.837Z,8.63
2024-03-13T05:35:44.516Z,8.75
2024-03-13T05:38:11.976Z,8.57
2024-03-13T05:40:39.063Z,8.67
2024-03-13T05:43:05.833Z,8.54
2024-03-13T05:45:35.975Z,8.66
2024-03-13T05:48:03.806Z,8.78
2024-03-13T05:50:30.796Z,8.88
2024-03-13T05:52:57.476Z,8.97
2024-03-13T05:55:25.527Z,8.78
2024-03-13T05:57:52.411Z,8.60
2024-03-13T06:00:20.561Z,8.69
2024-03-13T06:02:47.518Z,8.78
2024-03-13T06:05:16.158Z,8.80
2024-03-13T06:07:43.352Z,8.62
2024-03-13T06:10:13.388Z,8.62
2024-03-13T06:12:40.175Z,8.61
2024-03-13T06:15:13.836Z,8.58
2024-03-13T06:17:41.389Z,8.62
2024-03-13T06:20:14.425Z,8.69
2024-03-13T06:22:41.905Z,8.89
2024-03-13T06:25:13.856Z,8.64
2024-03-13T06:27:41.527Z,8.71
2024-03-13T06:30:10.140Z,8.88
2024-03-13T06:32:37.206Z,8.87
2024-03-13T06:35:05.859Z,8.99
2024-03-13T06:37:36.890Z,8.93
2024-03-13T06:40:05.473Z,9.00
2024-03-13T06:42:32.747Z,9.00
2024-03-13T06:44:59.603Z,9.07
2024-03-13T06:47:26.357Z,8.98
2024-03-13T06:49:52.932Z,9.09
2024-03-13T06:52:19.754Z,8.95
2024-03-13T06:54:46.549Z,9.06
2024-03-13T06:57:13.774Z,9.22
2024-03-13T06:59:40.898Z,9.33
2024-03-13T07:02:11.504Z,9.10
2024-03-13T07:04:38.352Z,9.53
2024-03-13T07:07:05.605Z,9.34
2024-03-13T07:09:32.950Z,9.68
2024-03-13T07:11:59.806Z,9.68
2024-03-13T07:14:26.602Z,9.80
2024-03-13T07:16:53.546Z,9.80
2024-03-13T07:19:21.839Z,9.68
2024-03-13T07:21:49.062Z,9.55
2024-03-13T07:24:15.828Z,9.65
2024-03-13T07:26:43.375Z,9.91
2024-03-13T07:29:10.746Z,10.02
2024-03-13T07:31:40.691Z,9.94
2024-03-13T07:34:11.288Z,9.97
2024-03-13T07:36:39.641Z,9.88
2024-03-13T07:39:12.422Z,10.05
2024-03-13T07:41:40.985Z,10.05
2024-03-13T07:44:10.291Z,9.91
2024-03-13T07:46:37.062Z,10.06
2024-03-13T07:49:04.437Z,9.88
2024-03-13T07:51:31.352Z,10.18
2024-03-13T07:53:58.157Z,10.19
2024-03-13T07:56:25.246Z,10.17
2024-03-13T07:58:52.556Z,10.32
2024-03-13T08:01:19.999Z,10.48
2024-03-13T08:03:46.819Z,10.47
2024-03-13T09:06:43.989Z,11.18
2024-03-13T09:09:10.951Z,10.96
2024-03-13T09:11:38.949Z,11.27
2024-03-13T09:14:08.975Z,11.08
2024-03-13T09:16:37.275Z,11.16
2024-03-13T09:19:05.380Z,10.90
2024-03-13T09:21:32.301Z,10.84
2024-03-13T09:23:59.565Z,11.06
2024-03-13T09:26:26.837Z,10.85
2024-03-13T09:28:56.612Z,11.00
2024-03-13T09:31:25.458Z,10.73
2024-03-13T09:33:52.478Z,11.07
2024-03-13T09:36:19.417Z,10.94
2024-03-13T09:38:46.092Z,10.68
2024-03-13T09:41:14.820Z,11.36
2024-03-13T09:43:41.869Z,11.10
2024-03-13T09:46:10.284Z,11.52
2024-03-13T09:48:40.865Z,11.68
2024-03-13T09:51:11.537Z,11.37
2024-03-13T09:53:42.343Z,11.28
2024-03-13T09:56:16.315Z,11.23
2024-03-13T09:58:47.066Z,11.16
2024-03-13T10:01:28.189Z,11.20
2024-03-13T10:04:03.856Z,11.11
2024-03-13T10:06:34.013Z,11.17
2024-03-13T10:09:03.530Z,11.35
2024-03-13T10:11:31.444Z,11.24
2024-03-13T10:14:00.450Z,11.52
2024-03-13T10:16:31.367Z,11.35
2024-03-13T10:18:59.431Z,11.18
2024-03-13T10:21:29.881Z,11.36
2024-03-13T10:23:57.745Z,11.49
2024-03-13T10:26:25.706Z,11.46
2024-03-13T10:28:52.541Z,11.66
2024-03-13T10:31:19.456Z,12.01
2024-03-13T10:33:46.324Z,12.11
2024-03-13T10:36:13.190Z,11.89
2024-03-13T10:38:43.247Z,11.83
2024-03-13T10:41:13.082Z,12.00
2024-03-13T10:43:42.399Z,12.16
2024-03-13T10:46:13.057Z,12.28
2024-03-13T10:48:42.648Z,12.10
2024-03-13T10:51:13.957Z,11.90
2024-03-13T10:53:43.956Z,12.24
2024-03-13T10:56:15.845Z,12.19
2024-03-13T10:58:49.550Z,12.68
2024-03-13T11:01:18.414Z,12.44
2024-03-13T11:03:47.445Z,12.37
2024-03-13T11:06:16.508Z,11.81
2024-03-13T11:08:43.806Z,11.92
2024-03-13T11:11:20.756Z,12.24
2024-03-13T11:13:55.673Z,11.98
2024-03-13T11:16:24.583Z,11.93
2024-03-13T11:18:52.727Z,12.41
2024-03-13T11:21:34.643Z,12.49
2024-03-13T11:24:04.162Z,13.02
2024-03-13T11:26:38.586Z,12.80
2024-03-13T11:29:13.152Z,12.91
2024-03-13T11:31:42.722Z,12.77
2024-03-13T11:34:10.668Z,13.01
2024-03-13T11:36:37.865Z,12.99
2024-03-13T11:39:05.561Z,13.08
2024-03-13T11:41:32.851Z,13.35
2024-03-13T11:43:59.882Z,13.23
2024-03-13T11:46:49.267Z,13.76
2024-03-13T11:49:16.644Z,13.42
2024-03-13T11:52:05.629Z,13.16
2024-03-13T11:54:36.112Z,12.31
2024-03-13T11:57:07.253Z,12.77
2024-03-13T11:59:50.816Z,13.32
2024-03-13T12:02:32.675Z,13.25
2024-03-13T12:05:07.973Z,12.85
2024-03-13T12:07:38.232Z,13.35
2024-03-13T12:10:05.227Z,13.46
2024-03-13T12:12:32.625Z,12.97
2024-03-13T12:14:59.318Z,12.93
2024-03-13T12:17:25.928Z,12.73
2024-03-13T12:19:52.608Z,12.93
2024-03-13T12:22:21.125Z,12.96
2024-03-13T12:24:48.570Z,12.96
2024-03-13T12:27:16.083Z,13.07
2024-03-13T12:29:42.920Z,13.64
2024-03-13T12:32:10.457Z,13.90
2024-03-13T12:34:37.599Z,13.10
2024-03-13T12:37:09.249Z,12.92
2024-03-13T12:39:37.704Z,12.69
2024-03-13T12:42:06.081Z,12.76
2024-03-13T12:44:33.480Z,12.79
2024-03-13T12:47:01.368Z,12.94
2024-03-13T12:49:28.396Z,13.42
2024-03-13T12:51:56.150Z,13.40
2024-03-13T12:54:28.956Z,13.49
2024-03-13T12:56:56.348Z,13.28
2024-03-13T12:59:23.290Z,13.11
2024-03-13T13:01:51.035Z,13.10
2024-03-13T13:04:19.525Z,13.36
2024-03-13T13:06:49.809Z,12.96
2024-03-13T13:09:16.823Z,12.64
2024-03-13T13:11:45.829Z,12.82
2024-03-13T13:14:12.962Z,12.62
2024-03-13T13:16:39.649Z,12.88
2024-03-13T13:19:07.044Z,12.76
2024-03-13T13:21:33.733Z,12.87
2024-03-13T13:24:00.428Z,13.14
2024-03-13T13:26:27.516Z,13.51
2024-03-13T13:29:08.486Z,13.74
2024-03-13T13:31:35.887Z,13.26
2024-03-13T13:34:02.933Z,13.53
2024-03-13T13:36:29.679Z,13.95
2024-03-13T13:38:56.371Z,13.85
2024-03-13T13:41:23.050Z,13.64
2024-03-13T13:43:49.669Z,14.10
2024-03-13T13:46:16.758Z,14.12
2024-03-13T13:48:43.630Z,13.23
2024-03-13T13:51:11.604Z,13.24
2024-03-13T13:53:38.421Z,13.89
2024-03-13T13:56:05.990Z,13.97
2024-03-13T13:58:33.033Z,13.82
2024-03-13T14:01:01.201Z,13.99
2024-03-13T14:03:28.833Z,13.89
2024-03-13T14:05:55.797Z,13.62
2024-03-13T14:08:23.212Z,13.53
2024-03-13T14:10:58.339Z,13.77
2024-03-13T14:13:27.325Z,13.66
2024-03-13T14:15:54.430Z,13.42
2024-03-13T14:18:21.940Z,13.24
2024-03-13T14:20:49.337Z,13.36
2024-03-13T14:23:16.220Z,12.85
2024-03-13T14:25:43.254Z,12.52
2024-03-13T14:28:12.279Z,12.56
2024-03-13T14:30:39.450Z,12.60
2024-03-13T14:33:08.267Z,12.86
2024-03-13T14:35:35.605Z,13.08
2024-03-13T14:38:03.019Z,13.13
2024-03-13T14:40:30.415Z,12.87
2024-03-13T14:42:57.586Z,12.53
2024-03-13T14:45:24.388Z,13.07
2024-03-13T14:47:52.736Z,12.97
2024-03-13T14:50:21.222Z,12.48
2024-03-13T14:55:21.676Z,12.56
2024-03-13T14:57:49.375Z,12.66
2024-03-13T15:00:17.997Z,12.75
2024-03-13T15:02:44.994Z,12.92
2024-03-13T15:05:12.107Z,12.56
2024-03-13T15:07:38.911Z,12.34
2024-03-13T15:10:06.169Z,12.53
2024-03-13T15:12:33.840Z,12.34
2024-03-13T15:15:01.152Z,12.47
2024-03-13T15:17:32.239Z,12.69
2024-03-13T15:19:59.694Z,12.35
2024-03-13T15:22:27.400Z,12.51
2024-03-13T15:24:54.041Z,12.46
2024-03-13T15:27:20.842Z,12.72
2024-03-13T15:29:47.575Z,12.56
2024-03-13T15:32:14.095Z,12.62
2024-03-13T15:34:40.989Z,12.87
2024-03-13T15:37:07.646Z,12.90
2024-03-13T15:39:34.281Z,12.61
2024-03-13T15:42:00.921Z,12.69
2024-03-13T15:44:28.748Z,12.92
2024-03-13T15:46:55.588Z,12.55
2024-03-13T15:49:22.332Z,13.04
2024-03-13T15:51:49.052Z,12.80
2024-03-13T15:54:16.395Z,12.92
2024-03-13T15:56:43.570Z,12.79
2024-03-13T15:59:12.916Z,12.94
2024-03-13T16:01:39.914Z,12.54
2024-03-13T16:04:06.654Z,12.94
2024-03-13T16:06:39.475Z,13.11
2024-03-13T16:09:18.210Z,12.80
2024-03-13T16:11:52.114Z,12.28
2024-03-13T16:14:25.433Z,12.17
2024-03-13T16:16:56.760Z,12.44
2024-03-13T16:19:31.130Z,12.42
2024-03-13T16:22:01.219Z,12.21
2024-03-13T16:24:31.936Z,12.28
2024-03-13T16:27:02.574Z,11.89
2024-03-13T16:29:33.035Z,12.03
2024-03-13T16:32:01.973Z,12.01
2024-03-13T16:34:31.825Z,12.03
2024-03-13T16:37:00.749Z,11.98
2024-03-13T16:39:35.663Z,11.65
2024-03-13T16:42:07.264Z,11.48
2024-03-13T16:44:40.830Z,11.39
2024-03-13T16:47:09.718Z,11.56
2024-03-13T16:49:37.005Z,11.67
2024-03-13T16:52:05.295Z,11.53
2024-03-13T16:54:38.028Z,11.77
2024-03-13T16:57:05.592Z,11.60
2024-03-13T16:59:33.174Z,11.50
2024-03-13T17:02:00.607Z,11.78
2024-03-13T17:04:27.574Z,11.67
2024-03-13T17:06:54.851Z,11.83
2024-03-13T17:09:23.132Z,11.72
2024-03-13T17:11:50.268Z,11.69
2024-03-13T17:14:17.824Z,11.63
2024-03-13T17:16:46.088Z,11.64
2024-03-13T17:19:13.449Z,11.77
2024-03-13T17:21:40.979Z,11.75
2024-03-13T17:24:10.280Z,11.76
2024-03-13T17:26:37.697Z,11.70
2024-03-13T17:29:05.602Z,11.52
2024-03-13T17:31:33.706Z,11.76
2024-03-13T17:34:01.418Z,11.64
2024-03-13T17:36:28.571Z,11.52
2024-03-13T17:38:55.919Z,11.54
2024-03-13T17:41:23.283Z,11.71
2024-03-13T17:43:51.469Z,11.59
2024-03-13T17:46:18.571Z,11.65
2024-03-13T17:48:45.704Z,11.81
2024-03-13T17:51:12.619Z,11.95
2024-03-13T17:53:40.867Z,11.96
2024-03-13T17:56:08.204Z,11.86
2024-03-13T17:58:36.354Z,11.56
2024-03-13T18:01:03.200Z,11.59
2024-03-13T18:03:30.293Z,11.47
2024-03-13T18:05:57.041Z,11.31
2024-03-13T18:08:23.581Z,11.14
2024-03-13T18:10:50.251Z,11.30
2024-03-13T18:13:16.855Z,11.23
2024-03-13T18:15:44.881Z,11.25
2024-03-13T18:18:11.974Z,11.27
2024-03-13T18:20:40.274Z,11.21
2024-03-13T18:23:07.401Z,11.22
2024-03-13T18:25:34.043Z,11.20
2024-03-13T18:28:00.737Z,11.27
2024-03-13T18:30:28.749Z,11.41
2024-03-13T18:32:55.721Z,11.52
2024-03-13T18:35:22.575Z,11.40
2024-03-13T18:37:49.263Z,11.28
2024-03-13T18:40:17.717Z,11.38
2024-03-13T18:42:44.690Z,11.47
2024-03-13T18:45:12.125Z,11.18
2024-03-13T18:47:39.600Z,11.36
2024-03-13T18:50:12.428Z,11.12
2024-03-13T18:52:43.763Z,11.27
2024-03-13T18:55:12.614Z,11.29
2024-03-13T18:57:39.470Z,11.24
2024-03-13T19:00:09.161Z,11.28
2024-03-13T19:02:36.272Z,11.44
2024-03-13T19:05:11.001Z,11.47
2024-03-13T19:07:45.144Z,11.45
2024-03-13T19:10:11.730Z,11.41
2024-03-13T19:12:38.935Z,11.49
2024-03-13T19:15:06.069Z,11.38
2024-03-13T19:17:35.672Z,11.40
2024-03-13T19:20:04.226Z,11.15
2024-03-13T19:22:31.141Z,11.31
2024-03-13T19:24:57.844Z,11.12
2024-03-13T19:27:24.699Z,11.11
2024-03-13T19:29:51.399Z,11.11
2024-03-13T19:32:18.395Z,11.33
2024-03-13T19:34:45.066Z,11.26
2024-03-13T19:37:12.037Z,11.14
2024-03-13T19:39:38.831Z,11.15
2024-03-13T19:42:07.311Z,11.03
2024-03-13T19:44:34.175Z,10.85
2024-03-13T19:47:00.875Z,11.11
2024-03-13T19:49:27.860Z,10.93
2024-03-13T19:51:55.799Z,10.95
2024-03-13T19:54:24.498Z,10.86
2024-03-13T19:56:52.832Z,10.78
2024-03-13T19:59:19.449Z,10.82
2024-03-13T20:01:46.066Z,10.70
2024-03-13T20:04:13.354Z,10.76
2024-03-13T20:06:44.562Z,10.70
2024-03-13T20:09:15.544Z,10.60
2024-03-13T20:11:43.023Z,10.68
2024-03-13T20:14:14.612Z,10.72
2024-03-13T20:16:44.143Z,10.57
2024-03-13T20:19:13.755Z,10.49
2024-03-13T20:21:40.666Z,10.47
2024-03-13T20:24:08.171Z,10.55
2024-03-13T20:26:42.272Z,10.49
2024-03-13T20:29:09.702Z,10.38
2024-03-13T20:31:39.309Z,10.52
2024-03-13T20:34:06.123Z,10.28
2024-03-13T20:36:35.077Z,10.31
2024-03-13T20:39:01.768Z,10.25
2024-03-13T20:41:29.012Z,10.34
2024-03-13T20:43:55.710Z,10.28
2024-03-13T20:46:22.283Z,10.49
2024-03-13T20:48:49.349Z,10.46
2024-03-13T20:51:16.716Z,10.48
2024-03-13T20:53:44.923Z,10.45
2024-03-13T20:56:12.561Z,10.45
2024-03-13T20:58:41.140Z,10.47
2024-03-13T21:01:09.034Z,10.72
2024-03-13T21:03:35.746Z,10.65
2024-03-13T21:06:04.255Z,10.61
2024-03-13T21:08:31.180Z,10.60
2024-03-13T21:10:58.746Z,10.66
2024-03-13T21:13:28.287Z,10.53
2024-03-13T21:16:00.732Z,10.42
2024-03-13T21:18:39.365Z,10.57
2024-03-13T21:21:08.122Z,10.59
2024-03-13T21:23:35.315Z,10.66
2024-03-13T21:26:08.693Z,10.82
2024-03-13T21:28:36.139Z,10.88
2024-03-13T21:31:03.517Z,10.75
2024-03-13T21:33:30.883Z,10.65
2024-03-13T21:35:57.867Z,10.57
2024-03-13T21:38:24.532Z,10.61
2024-03-13T21:40:51.215Z,10.45
2024-03-13T21:43:20.644Z,10.84
2024-03-13T21:45:47.678Z,10.91
2024-03-13T21:48:14.313Z,10.76
2024-03-13T21:50:43.937Z,10.61
2024-03-13T21:53:14.696Z,10.70
2024-03-13T21:55:41.348Z,10.75
2024-03-13T21:58:09.129Z,10.50
2024-03-13T22:00:36.182Z,10.24
2024-03-13T22:03:03.071Z,10.14
2024-03-13T22:05:30.019Z,10.29
2024-03-13T22:07:56.721Z,10.28
2024-03-13T22:10:25.661Z,10.33
2024-03-13T22:12:56.079Z,10.29
2024-03-13T22:15:23.466Z,10.11
2024-03-13T22:17:50.250Z,10.04
2024-03-13T22:20:17.642Z,10.14
2024-03-13T22:22:44.838Z,10.23
2024-03-13T22:25:11.947Z,10.20
2024-03-13T22:27:38.885Z,10.35
2024-03-13T22:30:07.746Z,10.41
2024-03-13T22:32:34.947Z,10.48
2024-03-13T22:35:01.728Z,10.41
2024-03-13T22:37:28.398Z,10.45
2024-03-13T22:39:55.516Z,10.53
2024-03-13T22:42:23.561Z,10.61
2024-03-13T22:44:50.448Z,10.68
2024-03-13T22:47:17.283Z,10.69
2024-03-13T22:49:46.677Z,10.53
2024-03-13T22:52:13.720Z,10.59
2024-03-13T22:54:40.363Z,10.59
2024-03-13T22:57:07.184Z,10.61
2024-03-13T22:59:33.957Z,10.39
2024-03-13T23:02:01.672Z,10.48
2024-03-13T23:04:28.939Z,10.51
2024-03-13T23:06:56.310Z,10.51
2024-03-13T23:09:23.773Z,10.43
2024-03-13T23:11:50.785Z,10.56
2024-03-13T23:14:17.503Z,10.67
2024-03-13T23:16:44.154Z,10.68
2024-03-13T23:19:10.833Z,10.75
2024-03-13T23:21:37.483Z,10.75
2024-03-13T23:24:04.660Z,10.72
2024-03-13T23:26:31.751Z,10.57
2024-03-13T23:28:59.575Z,10.48
2024-03-13T23:31:26.781Z,10.52
2024-03-13T23:33:53.793Z,10.67
2024-03-13T23:36:22.415Z,10.59
2024-03-13T23:38:49.587Z,10.39
2024-03-13T23:41:18.339Z,10.32
2024-03-13T23:43:45.114Z,10.54
2024-03-13T23:46:15.762Z,10.57
2024-03-13T23:48:42.822Z,10.45
2024-03-13T23:51:11.784Z,10.32
2024-03-13T23:53:38.509Z,10.22
2024-03-13T23:56:05.834Z,10.58
2024-03-13T23:58:34.163Z,10.63
